createdAt,value
2023-01-10T00:02:36.510Z,81.60
2023-01-10T00:07:39.282Z,82.18
2023-01-10T00:12:59.518Z,80.44
2023-01-10T00:18:03.918Z,82.06
2023-01-10T00:23:07.024Z,82.12
2023-01-10T00:28:19.668Z,81.98
2023-01-10T00:33:24.947Z,82.79
2023-01-10T00:38:27.721Z,84.57
2023-01-10T00:43:48.005Z,83.19
2023-01-10T00:48:52.735Z,84.01
2023-01-10T00:53:55.517Z,82.60
2023-01-10T00:58:58.261Z,84.71
2023-01-10T01:04:02.353Z,81.82
2023-01-10T01:09:05.152Z,82.54
2023-01-10T01:14:07.883Z,82.58
2023-01-10T01:19:12.474Z,83.12
2023-01-10T01:24:15.257Z,82.98
2023-01-10T01:29:18.201Z,81.78
2023-01-10T01:34:22.568Z,82.61
2023-01-10T01:39:25.609Z,84.30
2023-01-10T01:44:32.727Z,83.21
2023-01-10T01:49:41.289Z,86.63
2023-01-10T01:54:44.063Z,86.70
2023-01-10T01:59:49.153Z,88.08
2023-01-10T02:04:55.513Z,88.05
2023-01-10T02:10:02.309Z,92.31
2023-01-10T02:15:06.052Z,92.65
2023-01-10T02:20:13.731Z,90.57
2023-01-10T02:25:47.793Z,90.02
2023-01-10T02:31:11.443Z,90.25
2023-01-10T02:36:37.673Z,89.98
2023-01-10T02:41:46.418Z,88.43
2023-01-10T02:46:50.350Z,88.95
2023-01-10T02:51:54.773Z,88.61
2023-01-10T02:57:15.217Z,88.59
2023-01-10T03:02:27.784Z,88.04
2023-01-10T03:07:38.424Z,87.11
2023-01-10T03:12:46.214Z,86.13
2023-01-10T03:17:53.285Z,85.67
2023-01-10T03:22:57.539Z,85.35
2023-01-10T03:28:06.945Z,85.09
2023-01-10T03:33:11.502Z,84.67
2023-01-10T03:38:23.083Z,84.42
2023-01-10T03:43:51.092Z,84.69
2023-01-10T03:48:55.045Z,85.00
2023-01-10T03:54:00.898Z,83.81
2023-01-10T03:59:03.628Z,84.29
2023-01-10T04:04:06.675Z,83.76
2023-01-10T04:09:11.103Z,83.30
2023-01-10T04:14:13.832Z,82.61
2023-01-10T04:19:16.627Z,82.98
2023-01-10T04:24:20.765Z,81.65
2023-01-10T04:29:23.539Z,83.52
2023-01-10T04:34:26.302Z,84.05
2023-01-10T04:39:30.464Z,82.02
2023-01-10T04:44:33.232Z,82.41
2023-01-10T04:49:36.041Z,83.17
2023-01-10T04:54:40.138Z,82.78
2023-01-10T04:59:42.954Z,83.26
2023-01-10T05:04:45.803Z,82.39
2023-01-10T05:09:49.924Z,82.13
2023-01-10T05:14:52.694Z,82.15
2023-01-10T05:19:55.461Z,81.44
2023-01-10T05:24:59.558Z,82.83
2023-01-10T05:30:02.332Z,81.55
2023-01-10T05:35:05.756Z,81.46
2023-01-10T05:40:11.389Z,80.79
2023-01-10T05:45:14.142Z,81.58
2023-01-10T05:50:18.975Z,80.22
2023-01-10T05:55:23.219Z,80.70
2023-01-10T06:00:26.959Z,79.42
2023-01-10T06:05:29.728Z,79.75
2023-01-10T06:10:33.913Z,80.92
2023-01-10T06:15:37.333Z,79.86
2023-01-10T06:20:40.212Z,78.76
2023-01-10T06:25:44.363Z,80.26
2023-01-10T06:30:47.188Z,80.68
2023-01-10T06:35:50.067Z,81.33
2023-01-10T06:40:54.233Z,79.51
2023-01-10T06:45:57.079Z,80.13
2023-01-10T06:50:59.947Z,79.95
2023-01-10T06:56:05.918Z,79.75
2023-01-10T07:01:14.735Z,79.41
2023-01-10T07:06:17.717Z,78.86
2023-01-10T07:11:21.980Z,79.26
2023-01-10T07:16:24.864Z,78.41
2023-01-10T07:21:27.926Z,78.30
2023-01-10T07:26:32.089Z,78.55
2023-01-10T07:31:34.973Z,78.47
2023-01-10T07:36:39.466Z,79.38
2023-01-10T07:41:43.713Z,79.38
2023-01-10T07:46:51.467Z,79.28
2023-01-10T07:51:54.769Z,78.54
2023-01-10T07:56:58.893Z,79.77
2023-01-10T08:02:01.745Z,78.37
2023-01-10T08:07:04.629Z,78.77
2023-01-10T08:12:08.931Z,77.18
2023-01-10T08:17:11.695Z,77.80
2023-01-10T08:22:14.500Z,78.96
2023-01-10T08:27:18.780Z,79.15
2023-01-10T08:32:22.439Z,79.09
2023-01-10T08:37:25.292Z,79.37
2023-01-10T08:42:29.535Z,79.32
2023-01-10T08:47:32.304Z,79.54
2023-01-10T08:52:35.162Z,79.30
2023-01-10T08:57:39.394Z,80.01
2023-01-10T09:02:42.352Z,80.25
2023-01-10T09:07:46.352Z,78.44
2023-01-10T09:12:56.162Z,77.97
2023-01-10T09:18:01.382Z,77.73
2023-01-10T09:23:08.459Z,77.38
2023-01-10T09:28:12.724Z,77.11
2023-01-10T09:33:15.847Z,76.46
2023-01-10T09:38:22.264Z,74.66
2023-01-10T09:43:36.282Z,74.92
2023-01-10T09:48:48.950Z,75.75
2023-01-10T09:53:57.801Z,76.22
2023-01-10T09:59:04.800Z,75.42
2023-01-10T10:04:20.787Z,76.68
2023-01-10T10:09:26.508Z,76.17
2023-01-10T10:14:52.464Z,75.17
2023-01-10T10:20:11.007Z,75.46
2023-01-10T10:25:34.893Z,75.44
2023-01-10T10:30:53.053Z,75.10
2023-01-10T10:36:01.092Z,74.31
2023-01-10T10:41:04.313Z,75.86
2023-01-10T10:46:10.707Z,74.16
2023-01-10T10:51:17.998Z,72.73
2023-01-10T10:56:24.063Z,73.57
2023-01-10T11:01:28.702Z,73.06
2023-01-10T11:06:34.191Z,73.75
2023-01-10T11:11:41.823Z,72.96
2023-01-10T11:16:45.960Z,73.47
2023-01-10T11:21:53.358Z,73.26
2023-01-10T11:26:57.724Z,73.79
2023-01-10T11:32:10.542Z,72.87
2023-01-10T11:37:21.560Z,72.69
2023-01-10T11:42:30.689Z,71.63
2023-01-10T11:47:41.697Z,71.74
2023-01-10T11:52:49.628Z,71.87
2023-01-10T11:57:59.881Z,70.98
2023-01-10T12:03:14.921Z,68.94
2023-01-10T12:08:26.523Z,67.40
2023-01-10T12:13:30.640Z,67.46
2023-01-10T12:18:34.810Z,69.51
2023-01-10T12:23:41.476Z,67.39
2023-01-10T12:28:52.095Z,66.57
2023-01-10T12:34:02.441Z,68.83
2023-01-10T12:39:16.418Z,70.17
2023-01-10T12:44:27.779Z,69.91
2023-01-10T12:49:36.873Z,68.49
2023-01-10T12:54:39.738Z,68.16
2023-01-10T12:59:46.247Z,67.94
2023-01-10T13:04:54.304Z,68.53
2023-01-10T13:09:57.427Z,67.84
2023-01-10T13:15:06.190Z,67.52
2023-01-10T13:20:37.037Z,67.49
2023-01-10T13:25:39.970Z,66.05
2023-01-10T13:30:42.922Z,66.69
2023-01-10T13:35:48.950Z,65.85
2023-01-10T13:41:00.977Z,66.79
2023-01-10T13:46:35.000Z,66.08
2023-01-10T13:51:40.205Z,67.09
2023-01-10T13:56:44.603Z,66.28
2023-01-10T14:02:10.282Z,65.17
2023-01-10T14:07:22.923Z,65.62
2023-01-10T14:12:30.119Z,65.92
2023-01-10T14:17:34.869Z,65.76
2023-01-10T14:22:40.427Z,66.17
2023-01-10T14:27:46.413Z,65.70
2023-01-10T14:32:52.149Z,65.49
2023-01-10T14:37:58.505Z,65.27
2023-01-10T14:43:05.657Z,64.91
2023-01-10T14:48:27.163Z,65.86
2023-01-10T14:53:31.868Z,65.76
2023-01-10T14:58:34.595Z,65.10
2023-01-10T15:03:38.578Z,65.09
2023-01-10T15:08:42.927Z,65.47
2023-01-10T15:13:51.444Z,65.03
2023-01-10T15:18:56.453Z,64.94
2023-01-10T15:24:00.626Z,65.04
2023-01-10T15:29:10.265Z,64.87
2023-01-10T15:34:19.462Z,64.77
2023-01-10T15:39:26.187Z,64.64
2023-01-10T15:44:40.861Z,64.41
2023-01-10T15:49:53.977Z,64.32
2023-01-10T15:54:58.107Z,64.57
2023-01-10T16:00:01.170Z,64.90
2023-01-10T16:05:11.333Z,65.07
2023-01-10T16:10:21.389Z,64.52
2023-01-10T16:15:26.275Z,64.35
2023-01-10T16:20:31.635Z,64.76
2023-01-10T16:25:39.621Z,64.52
2023-01-10T16:30:46.499Z,63.97
2023-01-10T16:35:50.811Z,63.78
2023-01-10T16:40:58.212Z,63.33
2023-01-10T16:46:01.084Z,63.42
2023-01-10T16:51:16.849Z,63.01
2023-01-10T16:56:24.926Z,63.46
2023-01-10T17:01:31.752Z,62.52
2023-01-10T17:06:35.577Z,62.63
2023-01-10T17:11:43.080Z,62.31
2023-01-10T17:16:46.268Z,61.97
2023-01-10T17:21:49.061Z,62.25
2023-01-10T17:26:53.386Z,62.55
2023-01-10T17:31:56.273Z,62.02
2023-01-10T17:36:59.086Z,61.86
2023-01-10T17:42:03.342Z,62.19
2023-01-10T17:47:06.199Z,62.21
2023-01-10T17:52:09.100Z,62.90
2023-01-10T17:57:14.791Z,65.49
2023-01-10T18:02:19.286Z,66.21
2023-01-10T18:07:22.167Z,66.42
2023-01-10T18:12:26.391Z,66.46
2023-01-10T18:17:29.372Z,65.85
2023-01-10T18:22:49.822Z,64.85
2023-01-10T18:27:55.306Z,65.36
2023-01-10T18:32:58.142Z,64.55
2023-01-10T18:38:01.047Z,64.21
2023-01-10T18:43:05.290Z,64.54
2023-01-10T18:48:08.086Z,64.68
2023-01-10T18:53:10.963Z,64.42
2023-01-10T18:58:15.166Z,64.57
2023-01-10T19:03:18.136Z,65.85
2023-01-10T19:08:20.911Z,68.15
2023-01-10T19:13:25.150Z,71.40
2023-01-10T19:18:28.316Z,73.77
2023-01-10T19:23:31.390Z,75.54
2023-01-10T19:28:35.842Z,77.28
2023-01-10T19:33:39.102Z,78.65
2023-01-10T19:38:41.965Z,79.90
2023-01-10T19:43:46.109Z,80.52
2023-01-10T19:48:48.980Z,80.93
2023-01-10T19:53:52.268Z,81.60
2023-01-10T19:58:56.663Z,82.25
2023-01-10T20:04:02.154Z,83.51
2023-01-10T20:09:06.059Z,83.69
2023-01-10T20:14:14.466Z,83.50
2023-01-10T20:19:17.414Z,84.42
2023-01-10T20:24:21.762Z,83.86
2023-01-10T20:29:26.117Z,84.03
2023-01-10T20:34:29.668Z,83.88
2023-01-10T20:39:32.974Z,84.26
2023-01-10T20:44:37.270Z,84.42
2023-01-10T20:49:40.042Z,84.00
2023-01-10T20:54:42.951Z,84.48
2023-01-10T20:59:47.146Z,84.19
2023-01-10T21:04:50.731Z,84.07
2023-01-10T21:09:53.625Z,83.71
2023-01-10T21:14:57.924Z,83.87
2023-01-10T21:20:00.753Z,83.04
2023-01-10T21:25:03.973Z,82.52
2023-01-10T21:30:10.405Z,81.83
2023-01-10T21:35:13.175Z,81.32
2023-01-10T21:40:16.330Z,80.60
2023-01-10T21:45:21.094Z,79.63
2023-01-10T21:50:23.951Z,79.50
2023-01-10T21:55:27.428Z,78.74
2023-01-10T22:00:31.993Z,79.34
2023-01-10T22:05:34.920Z,80.41
2023-01-10T22:10:37.787Z,84.20
2023-01-10T22:15:43.343Z,84.28
2023-01-10T22:20:46.269Z,85.41
2023-01-10T22:25:59.008Z,86.19
2023-01-10T22:31:03.234Z,85.13
2023-01-10T22:36:06.573Z,84.84
2023-01-10T22:41:10.823Z,83.93
2023-01-10T22:46:16.451Z,84.78
2023-01-10T22:51:21.101Z,83.39
2023-01-10T22:56:25.372Z,83.46
2023-01-10T23:01:29.612Z,82.03
2023-01-10T23:06:32.576Z,81.71
2023-01-10T23:11:35.404Z,80.52
2023-01-10T23:16:39.656Z,79.36
2023-01-10T23:21:42.515Z,78.60
2023-01-10T23:26:45.275Z,78.88
2023-01-10T23:31:49.827Z,79.12
2023-01-10T23:36:52.635Z,79.00
2023-01-10T23:41:55.436Z,79.64
2023-01-10T23:46:59.583Z,80.39
2023-01-10T23:52:02.461Z,81.52
2023-01-10T23:57:05.228Z,84.00
